SETU/TUA METAR and TAF weather

Enter ICAO airport designator
Station Type Date Time Source
SETU METAR 2021/09/24 21:00 UTC NOAA

SETU 242100Z 10006KT 9999 OVC020 13/09 Q1030


Station Type Date Time Source
SETU Decoded METAR 2021/09/24 21:00 UTC NOAA

Tulcan / El Rosal, Ecuador (SETU) 00-49N 077-42W
Sep 24, 2021 - 05:00 PM EDT / 2021.09.24 2100 UTC
Wind: from the E (100 degrees) at 7 MPH (6 KT):0
Visibility: greater than 7 mile(s):0
Sky conditions: overcast
Temperature: 55 F (13 C)
Dew Point: 48 F (9 C)
Relative Humidity: 76%
Pressure (altimeter): 30.42 in. Hg (1030 hPa)
ob: SETU 242100Z 10006KT 9999 OVC020 13/09 Q1030
cycle: 21

Station Type Date Time Source
SETU TAF UTC NOAA

Error!

Example: see airport list